Time;durP1;ratioP1;P1;durP2;ratioP2;P2;SDS_P1;SDS_P2;PMS_P1;PMS_P2;Temp;Humidity;BMP_temperature;BMP_pressure;BME280_temperature;BME280_humidity;BME280_pressure;Samples;Min_cycle;Max_cycle;Signal;HPM_P1;HPM_P2
2022/11/13 00:01:09;;;;;;;83.60;59.20;;;5.20;99.90;;;;;;5037709;28;20045;-70
2022/11/13 00:03:34;;;;;;;;;;;5.20;99.90;;;;;;5038191;28;20046;-71
2022/11/13 00:06:00;;;;;;;60.38;46.33;;;5.50;99.90;;;;;;5037735;28;20015;-71
2022/11/13 00:08:26;;;;;;;65.55;50.33;;;5.20;99.90;;;;;;5037360;28;20041;-71
2022/11/13 00:10:59;;;;;;;77.00;54.30;;;5.20;99.90;;;;;;5017312;28;20053;-70
2022/11/13 00:13:24;;;;;;;79.70;54.72;;;5.30;99.90;;;;;;5005487;28;20034;-71
2022/11/13 00:16:02;;;;;;;69.45;52.03;;;5.30;99.90;;;;;;5017717;28;20191;-71
2022/11/13 00:18:28;;;;;;;77.53;56.38;;;5.30;99.90;;;;;;5017856;28;20047;-71
2022/11/13 00:20:56;;;;;;;78.13;57.28;;;5.30;99.90;;;;;;5017303;28;20046;-70
2022/11/13 00:23:21;;;;;;;80.60;57.72;;;5.40;99.90;;;;;;5017525;28;20049;-69
2022/11/13 00:25:47;;;;;;;77.35;57.33;;;5.50;99.90;;;;;;5016907;28;20494;-71
2022/11/13 00:28:13;;;;;;;76.03;58.13;;;5.90;99.90;;;;;;5009193;28;20049;-70
2022/11/13 00:30:39;;;;;;;82.57;58.60;;;5.50;99.90;;;;;;5037439;28;20033;-71
2022/11/13 00:33:05;;;;;;;78.43;57.47;;;5.60;99.90;;;;;;5037318;28;20104;-70
2022/11/13 00:35:31;;;;;;;94.80;62.63;;;5.90;99.90;;;;;;5036407;28;20060;-70
2022/11/13 00:37:57;;;;;;;87.60;58.67;;;5.70;99.90;;;;;;5037312;28;20141;-70
2022/11/13 00:40:22;;;;;;;80.88;58.28;;;5.70;99.90;;;;;;5015460;28;20414;-70
2022/11/13 00:42:48;;;;;;;70.03;53.67;;;5.70;99.90;;;;;;5017516;28;20034;-70
2022/11/13 00:45:14;;;;;;;67.32;51.97;;;5.70;99.90;;;;;;5016968;28;20038;-70
2022/11/13 00:47:39;;;;;;;65.22;51.97;;;5.80;99.90;;;;;;5017279;28;20366;-70
2022/11/13 00:50:05;;;;;;;64.82;50.85;;;5.80;99.90;;;;;;5016596;28;20038;-70
2022/11/13 00:52:31;;;;;;;67.97;50.15;;;5.80;99.90;;;;;;5008106;28;20358;-71
2022/11/13 00:54:56;;;;;;;57.97;47.75;;;5.90;99.90;;;;;;5022105;28;20034;-71
2022/11/13 00:57:22;;;;;;;59.53;47.00;;;5.90;99.90;;;;;;5017005;28;20041;-70
2022/11/13 00:59:48;;;;;;;63.38;49.05;;;5.90;99.90;;;;;;5014214;28;20059;-70
2022/11/13 01:02:14;;;;;;;59.70;42.97;;;5.90;99.90;;;;;;5017113;28;20056;-70
2022/11/13 01:04:40;;;;;;;55.90;45.17;;;5.90;99.90;;;;;;5016828;28;20104;-71
2022/11/13 01:07:06;;;;;;;60.10;47.22;;;5.90;99.90;;;;;;5016712;28;20112;-70
2022/11/13 01:09:32;;;;;;;52.70;43.60;;;5.80;99.90;;;;;;5016086;28;20445;-71
2022/11/13 01:11:57;;;;;;;56.10;43.75;;;5.90;99.90;;;;;;5016424;28;20104;-70
2022/11/13 01:14:23;;;;;;;59.17;45.40;;;5.90;99.90;;;;;;5016039;28;20041;-70
2022/11/13 01:16:49;;;;;;;62.45;46.28;;;5.90;99.90;;;;;;5016773;28;20041;-70
2022/11/13 01:19:14;;;;;;;59.83;45.70;;;6.40;99.90;;;;;;4982897;28;20347;-70
2022/11/13 01:21:40;;;;;;;58.17;45.58;;;5.90;99.90;;;;;;5016640;28;20049;-70
2022/11/13 01:24:05;;;;;;;58.70;45.47;;;5.90;99.90;;;;;;4983032;28;20056;-70
2022/11/13 01:26:31;;;;;;;57.28;45.35;;;5.90;99.90;;;;;;5016176;28;20095;-71
2022/11/13 01:28:58;;;;;;;62.70;46.85;;;6.50;99.90;;;;;;5012247;28;20042;-70
2022/11/13 01:31:30;;;;;;;65.20;48.65;;;5.90;99.90;;;;;;5007146;28;20037;-71
2022/11/13 01:33:56;;;;;;;62.03;45.45;;;5.90;99.90;;;;;;5036219;28;20030;-70
2022/11/13 01:36:26;;;;;;;54.00;41.85;;;5.90;99.90;;;;;;5036135;28;20471;-70
2022/11/13 01:38:52;;;;;;;54.83;43.47;;;6.20;99.90;;;;;;5035848;28;20037;-70
2022/11/13 01:41:19;;;;;;;52.58;41.72;;;5.90;99.90;;;;;;5036024;28;20053;-71
2022/11/13 01:43:45;;;;;;;51.05;41.42;;;5.90;99.90;;;;;;5005485;28;20387;-70
2022/11/13 01:46:19;;;;;;;54.28;41.72;;;5.90;99.90;;;;;;4998910;28;20050;-71
2022/11/13 01:48:56;;;;;;;47.15;38.30;;;5.90;99.90;;;;;;5015318;28;20093;-70
2022/11/13 01:51:29;;;;;;;49.05;40.38;;;5.90;99.90;;;;;;5015880;28;20089;-71
2022/11/13 01:53:56;;;;;;;56.63;42.42;;;5.90;99.90;;;;;;5015649;28;20100;-70
2022/11/13 01:56:22;;;;;;;53.58;42.95;;;5.90;99.90;;;;;;5028736;28;20081;-70
2022/11/13 01:58:56;;;;;;;54.08;44.53;;;5.90;99.90;;;;;;5016401;28;20418;-71
2022/11/13 02:01:22;;;;;;;51.53;41.47;;;5.90;99.90;;;;;;5015839;28;20049;-71
2022/11/13 02:03:48;;;;;;;57.83;43.15;;;5.90;99.90;;;;;;5015768;28;20057;-70
2022/11/13 02:06:14;;;;;;;60.67;45.72;;;6.00;99.90;;;;;;5015764;28;20070;-70
2022/11/13 02:08:39;;;;;;;52.33;42.58;;;6.00;99.90;;;;;;5015353;28;20049;-71
2022/11/13 02:11:05;;;;;;;57.42;44.47;;;6.00;99.90;;;;;;5015535;28;20529;-71
2022/11/13 02:13:32;;;;;;;50.35;42.17;;;6.00;99.90;;;;;;5020292;28;20045;-71
2022/11/13 02:15:58;;;;;;;57.28;44.75;;;6.00;99.90;;;;;;5015535;28;20172;-71
2022/11/13 02:18:26;;;;;;;58.22;43.13;;;6.00;99.90;;;;;;5015696;28;20438;-71
2022/11/13 02:20:59;;;;;;;53.05;43.50;;;6.00;99.90;;;;;;5015417;28;20037;-71
2022/11/13 02:23:48;;;;;;;49.60;40.25;;;5.90;99.90;;;;;;5015334;28;20474;-70
2022/11/13 02:26:15;;;;;;;46.35;38.28;;;5.90;99.90;;;;;;4984254;28;20133;-71
2022/11/13 02:28:41;;;;;;;42.72;35.70;;;5.90;99.90;;;;;;5015059;28;20046;-70
2022/11/13 02:31:11;;;;;;;50.03;39.95;;;5.90;99.90;;;;;;5015056;28;20498;-70
2022/11/13 02:33:37;;;;;;;41.17;34.90;;;5.90;99.90;;;;;;5015417;28;20053;-70
2022/11/13 02:36:05;;;;;;;51.22;38.63;;;5.90;99.90;;;;;;5034375;28;20045;-70
2022/11/13 02:38:33;;;;;;;42.45;34.38;;;5.90;99.90;;;;;;5035034;28;20075;-71
2022/11/13 02:40:59;;;;;;;43.55;34.97;;;5.90;99.90;;;;;;5034953;28;20469;-70
2022/11/13 02:43:24;;;;;;;39.88;33.08;;;6.00;99.90;;;;;;5016411;28;20100;-70
2022/11/13 02:45:53;;;;;;;41.03;34.13;;;5.90;99.90;;;;;;5014775;28;20045;-70
2022/11/13 02:48:18;;;;;;;38.30;33.25;;;6.00;99.90;;;;;;4997911;28;20053;-71
2022/11/13 02:50:44;;;;;;;41.08;33.95;;;6.00;99.90;;;;;;5015080;28;20082;-71
2022/11/13 02:53:10;;;;;;;41.00;34.83;;;6.00;99.90;;;;;;5015095;28;20046;-70
2022/11/13 02:55:36;;;;;;;41.55;33.65;;;6.00;99.90;;;;;;5014850;28;20465;-70
2022/11/13 02:58:02;;;;;;;39.03;33.70;;;6.00;99.90;;;;;;5014305;28;20046;-71
2022/11/13 03:00:27;;;;;;;42.72;32.88;;;6.00;99.90;;;;;;5015074;28;20116;-71
2022/11/13 03:02:54;;;;;;;38.70;32.92;;;6.10;99.90;;;;;;5015123;28;20050;-70
2022/11/13 03:05:20;;;;;;;39.03;34.67;;;6.10;99.90;;;;;;5014571;28;20073;-70
2022/11/13 03:07:46;;;;;;;37.30;32.22;;;6.10;99.90;;;;;;4997711;28;20088;-71
2022/11/13 03:10:12;;;;;;;34.42;30.25;;;6.10;99.90;;;;;;5003586;28;20537;-71
2022/11/13 03:12:39;;;;;;;37.95;31.70;;;6.10;99.90;;;;;;5020137;28;20054;-71
2022/11/13 03:15:06;;;;;;;34.88;30.17;;;6.10;99.90;;;;;;4997381;28;20054;-71
2022/11/13 03:17:32;;;;;;;38.15;31.27;;;6.10;99.90;;;;;;5014812;28;20066;-70
2022/11/13 03:19:59;;;;;;;35.72;30.55;;;6.10;99.90;;;;;;5014669;28;20050;-71
2022/11/13 03:22:25;;;;;;;35.10;30.90;;;6.10;99.90;;;;;;5014820;28;20042;-70
2022/11/13 03:24:50;;;;;;;35.25;31.00;;;6.10;99.90;;;;;;5014898;28;20069;-71
2022/11/13 03:27:16;;;;;;;37.60;31.17;;;6.10;99.90;;;;;;5014564;28;20076;-70
2022/11/13 03:29:44;;;;;;;37.30;32.80;;;6.10;99.90;;;;;;5014764;28;20037;-70
2022/11/13 03:32:10;;;;;;;35.75;31.52;;;6.00;99.90;;;;;;5014400;28;20037;-71
2022/11/13 03:34:35;;;;;;;38.90;31.98;;;6.00;99.90;;;;;;5014530;28;20061;-71
2022/11/13 03:37:01;;;;;;;36.50;31.08;;;6.00;99.90;;;;;;5014225;28;20136;-71
2022/11/13 03:39:26;;;;;;;36.35;31.42;;;6.00;99.90;;;;;;5014642;28;20046;-71
2022/11/13 03:41:52;;;;;;;36.70;32.13;;;5.90;99.90;;;;;;5014587;28;20458;-70
2022/11/13 03:44:17;;;;;;;39.33;33.75;;;5.90;99.90;;;;;;5014522;28;20481;-70
2022/11/13 03:46:43;;;;;;;39.50;34.15;;;5.90;99.90;;;;;;5014790;28;20060;-71
2022/11/13 03:49:08;;;;;;;40.42;32.45;;;5.90;99.90;;;;;;5014815;28;20069;-70
2022/11/13 03:51:34;;;;;;;36.15;32.03;;;5.90;99.90;;;;;;5014315;28;20378;-70
2022/11/13 03:54:00;;;;;;;36.72;30.73;;;5.80;99.90;;;;;;5014596;28;20077;-70
2022/11/13 03:56:26;;;;;;;35.95;31.98;;;6.20;99.90;;;;;;5014443;28;20442;-70
2022/11/13 03:58:51;;;;;;;39.97;32.95;;;5.80;99.90;;;;;;5014383;28;20054;-69
2022/11/13 04:01:17;;;;;;;45.53;32.20;;;5.80;99.90;;;;;;5014270;28;20134;-69
2022/11/13 04:03:42;;;;;;;41.65;32.58;;;5.80;99.90;;;;;;5014421;28;20046;-70
2022/11/13 04:06:08;;;;;;;43.30;31.73;;;5.70;99.90;;;;;;5013889;28;20038;-69
2022/11/13 04:08:34;;;;;;;38.95;32.40;;;5.70;99.90;;;;;;5014856;28;20050;-69
2022/11/13 04:11:11;;;;;;;34.47;30.38;;;5.70;99.90;;;;;;5016260;28;20060;-70
2022/11/13 04:13:39;;;;;;;40.17;31.50;;;5.70;99.90;;;;;;5028761;28;20042;-69
2022/11/13 04:16:05;;;;;;;42.17;32.72;;;5.60;99.90;;;;;;5017826;28;20115;-69
2022/11/13 04:18:31;;;;;;;40.35;32.70;;;5.60;99.90;;;;;;5000519;28;20046;-69
2022/11/13 04:21:01;;;;;;;38.10;31.33;;;5.60;99.90;;;;;;5017481;28;20069;-70
2022/11/13 04:23:27;;;;;;;38.63;31.15;;;5.50;99.90;;;;;;5010066;28;20048;-70
2022/11/13 04:25:53;;;;;;;40.75;33.13;;;5.50;99.90;;;;;;5019643;28;20041;-69
2022/11/13 04:28:18;;;;;;;42.30;33.45;;;5.50;99.90;;;;;;5037174;28;20041;-69
2022/11/13 04:30:44;;;;;;;42.28;33.42;;;5.50;99.90;;;;;;5037356;28;20037;-69
2022/11/13 04:33:10;;;;;;;43.90;34.80;;;5.40;99.90;;;;;;5037542;28;20041;-69
2022/11/13 04:35:35;;;;;;;47.75;35.50;;;5.40;99.90;;;;;;5020528;28;20128;-70
2022/11/13 04:38:01;;;;;;;38.63;32.80;;;5.40;99.90;;;;;;5016854;28;20061;-70
2022/11/13 04:40:27;;;;;;;46.72;36.88;;;5.30;99.90;;;;;;4983663;28;20045;-70
2022/11/13 04:42:52;;;;;;;48.53;37.78;;;5.30;99.90;;;;;;5017597;28;20046;-69
2022/11/13 04:45:20;;;;;;;57.17;39.20;;;5.30;99.90;;;;;;5017251;28;20156;-70
2022/11/13 04:47:46;;;;;;;56.78;41.20;;;5.40;99.90;;;;;;5016886;28;20389;-69
2022/11/13 04:50:13;;;;;;;52.55;39.33;;;5.40;99.90;;;;;;5017215;28;20057;-69
2022/11/13 04:52:39;;;;;;;49.20;38.78;;;5.40;99.90;;;;;;5016557;28;20033;-70
2022/11/13 04:55:06;;;;;;;62.15;43.15;;;5.40;99.90;;;;;;5016641;28;20041;-70
2022/11/13 04:57:32;;;;;;;46.60;37.83;;;5.40;99.90;;;;;;5014771;28;20421;-69
2022/11/13 04:59:57;;;;;;;52.55;40.65;;;5.40;99.90;;;;;;5017028;28;20078;-69
2022/11/13 05:02:23;;;;;;;45.47;36.47;;;5.30;99.90;;;;;;5016967;28;20077;-69
2022/11/13 05:04:48;;;;;;;51.88;40.67;;;5.30;99.90;;;;;;5016120;28;20042;-70
2022/11/13 05:07:14;;;;;;;53.45;38.65;;;5.40;99.90;;;;;;5016674;28;20097;-70
2022/11/13 05:09:40;;;;;;;46.33;37.63;;;5.30;99.90;;;;;;5016479;28;20048;-69
2022/11/13 05:12:06;;;;;;;49.42;37.53;;;5.30;99.90;;;;;;5016752;28;20461;-70
2022/11/13 05:14:39;;;;;;;44.65;37.95;;;5.30;99.90;;;;;;4999360;28;20050;-70
2022/11/13 05:17:10;;;;;;;51.85;38.00;;;5.20;99.90;;;;;;5016910;28;20064;-69
2022/11/13 05:19:36;;;;;;;44.45;36.78;;;5.20;99.90;;;;;;5016380;28;20038;-70
2022/11/13 05:22:01;;;;;;;47.35;35.50;;;5.20;99.90;;;;;;5004730;28;20079;-70
2022/11/13 05:24:27;;;;;;;56.13;40.95;;;5.20;99.90;;;;;;5016543;28;20130;-70
2022/11/13 05:26:53;;;;;;;45.47;36.38;;;5.20;99.90;;;;;;5016802;28;20041;-70
2022/11/13 05:29:20;;;;;;;53.40;40.22;;;5.10;99.90;;;;;;5016463;28;20137;-70
2022/11/13 05:31:46;;;;;;;48.38;37.67;;;5.10;99.90;;;;;;5016483;28;20053;-69
2022/11/13 05:34:11;;;;;;;49.83;38.63;;;5.00;99.90;;;;;;5016118;28;20480;-69
2022/11/13 05:36:40;;;;;;;51.67;37.22;;;5.00;99.90;;;;;;5016286;28;20069;-69
2022/11/13 05:39:06;;;;;;;53.97;40.38;;;5.00;99.90;;;;;;4998498;28;20111;-69
2022/11/13 05:41:31;;;;;;;54.70;42.45;;;5.00;99.90;;;;;;5027710;28;20358;-69
2022/11/13 05:43:57;;;;;;;48.55;39.10;;;5.00;99.90;;;;;;5018034;28;20038;-69
2022/11/13 05:46:26;;;;;;;47.97;38.90;;;5.00;99.90;;;;;;5016100;28;20103;-69
2022/11/13 05:48:56;;;;;;;54.42;41.65;;;5.00;99.90;;;;;;5015668;28;20038;-70
2022/11/13 05:51:25;;;;;;;54.45;40.75;;;5.00;99.90;;;;;;4982902;28;20339;-69
2022/11/13 05:53:54;;;;;;;53.17;40.95;;;5.00;99.90;;;;;;5005828;28;20117;-71
2022/11/13 05:56:23;;;;;;;50.72;39.45;;;5.00;99.90;;;;;;5022605;28;20037;-71
2022/11/13 05:58:50;;;;;;;50.38;39.95;;;5.10;99.90;;;;;;4998575;28;20038;-69
2022/11/13 06:01:21;;;;;;;50.80;40.58;;;5.00;99.90;;;;;;5015484;28;20049;-69
2022/11/13 06:03:48;;;;;;;53.13;41.75;;;5.00;99.90;;;;;;5015797;28;20050;-69
2022/11/13 06:06:17;;;;;;;52.35;39.60;;;5.00;99.90;;;;;;4998108;28;20465;-69
2022/11/13 06:08:43;;;;;;;55.75;39.60;;;5.20;99.90;;;;;;5015739;28;20413;-69
2022/11/13 06:11:11;;;;;;;54.90;39.00;;;5.00;99.90;;;;;;4997910;28;20054;-69
2022/11/13 06:13:40;;;;;;;50.88;39.88;;;5.00;99.90;;;;;;5015725;28;20342;-69
2022/11/13 06:16:14;;;;;;;55.42;40.50;;;4.90;99.90;;;;;;4998584;28;20419;-69
2022/11/13 06:18:40;;;;;;;;;;;4.90;99.90;;;;;;5015981;28;20065;-69
2022/11/13 06:21:11;;;;;;;47.08;37.22;;;4.90;99.90;;;;;;5015534;28;19927;-69
2022/11/13 06:23:41;;;;;;;44.13;34.55;;;4.80;99.90;;;;;;5014899;28;20532;-69
2022/11/13 06:26:13;;;;;;;44.90;35.20;;;5.10;99.90;;;;;;5015430;28;20034;-69
2022/11/13 06:28:39;;;;;;;47.85;36.95;;;4.80;99.90;;;;;;5015360;28;20057;-69
2022/11/13 06:31:26;;;;;;;45.50;37.17;;;4.70;99.90;;;;;;5015862;28;20034;-69
2022/11/13 06:33:52;;;;;;;50.05;38.47;;;4.70;99.90;;;;;;5014137;28;20068;-70
2022/11/13 06:36:21;;;;;;;48.13;38.08;;;4.60;99.90;;;;;;5015421;28;20080;-69
2022/11/13 06:38:47;;;;;;;49.08;39.40;;;4.60;99.90;;;;;;5014854;28;20089;-70
2022/11/13 06:41:15;;;;;;;50.38;39.25;;;4.60;99.90;;;;;;4991418;28;20045;-69
2022/11/13 06:43:41;;;;;;;58.50;41.28;;;4.60;99.90;;;;;;5034640;28;20479;-69
2022/11/13 06:46:12;;;;;;;51.58;39.33;;;4.60;99.90;;;;;;5035222;28;20124;-69
2022/11/13 06:48:41;;;;;;;53.95;40.85;;;5.50;99.90;;;;;;5001900;28;20060;-69
2022/11/13 06:51:10;;;;;;;49.50;38.40;;;4.50;99.90;;;;;;5024133;28;20108;-69
2022/11/13 06:53:36;;;;;;;45.17;35.25;;;4.50;99.90;;;;;;5014728;28;20042;-72
2022/11/13 06:56:05;;;;;;;58.35;39.65;;;4.50;99.90;;;;;;5015081;28;20045;-70
2022/11/13 06:58:31;;;;;;;43.65;33.28;;;4.50;99.90;;;;;;5014966;28;20465;-69
2022/11/13 07:01:05;;;;;;;46.03;35.30;;;4.50;99.90;;;;;;5015962;28;20104;-69
2022/11/13 07:03:30;;;;;;;58.83;41.10;;;4.50;99.90;;;;;;5015021;28;20056;-70
2022/11/13 07:05:56;;;;;;;56.55;41.85;;;4.50;99.90;;;;;;5014292;28;20038;-70
2022/11/13 07:08:21;;;;;;;60.75;43.00;;;4.50;99.90;;;;;;5014272;28;20042;-70
2022/11/13 07:10:54;;;;;;;49.78;37.70;;;4.50;99.90;;;;;;5014892;28;20524;-70
2022/11/13 07:13:21;;;;;;;51.92;38.13;;;4.50;99.90;;;;;;5002023;28;20049;-70
2022/11/13 07:15:46;;;;;;;54.92;40.22;;;4.50;99.90;;;;;;5014910;28;20046;-71
2022/11/13 07:18:12;;;;;;;50.45;38.63;;;4.50;99.90;;;;;;5014402;28;20491;-71
2022/11/13 07:20:40;;;;;;;59.00;38.83;;;4.60;99.90;;;;;;5014217;28;20050;-70
2022/11/13 07:23:06;;;;;;;50.50;38.92;;;4.50;99.90;;;;;;5014791;28;20049;-70
2022/11/13 07:25:32;;;;;;;45.38;36.58;;;4.50;99.90;;;;;;5014646;28;20038;-70
2022/11/13 07:27:58;;;;;;;50.45;37.03;;;4.50;99.90;;;;;;5014833;28;20045;-70
2022/11/13 07:30:23;;;;;;;48.92;36.20;;;4.60;99.90;;;;;;5014484;28;20088;-70
2022/11/13 07:32:49;;;;;;;43.83;35.47;;;4.50;99.90;;;;;;5013782;28;20037;-70
2022/11/13 07:35:18;;;;;;;44.67;33.65;;;4.50;99.90;;;;;;5014554;28;20057;-70
2022/11/13 07:37:44;;;;;;;45.45;34.97;;;4.50;99.90;;;;;;5011565;28;20046;-70
2022/11/13 07:40:10;;;;;;;47.88;37.65;;;4.60;99.90;;;;;;5013374;28;20056;-71
2022/11/13 07:42:36;;;;;;;46.35;33.53;;;4.60;99.90;;;;;;5004091;28;20049;-73
2022/11/13 07:45:02;;;;;;;42.40;35.88;;;4.60;99.90;;;;;;5034036;28;20064;-71
2022/11/13 07:47:28;;;;;;;46.25;34.35;;;4.60;99.90;;;;;;5037814;28;20052;-70
2022/11/13 07:49:53;;;;;;;42.35;34.67;;;4.60;99.90;;;;;;5016083;28;20041;-71
2022/11/13 07:52:19;;;;;;;43.03;36.00;;;4.60;99.90;;;;;;5024679;28;20045;-71
2022/11/13 07:54:45;;;;;;;47.90;37.47;;;4.60;99.90;;;;;;5019061;28;20040;-70
2022/11/13 07:57:10;;;;;;;44.90;36.65;;;4.60;99.90;;;;;;5016789;28;20044;-71
2022/11/13 07:59:36;;;;;;;40.70;34.67;;;4.70;99.90;;;;;;5017167;28;20050;-71
2022/11/13 08:02:01;;;;;;;39.60;34.30;;;4.60;99.90;;;;;;5006993;28;20042;-71
2022/11/13 08:04:29;;;;;;;47.67;35.97;;;4.70;99.90;;;;;;5034499;28;20413;-71
2022/11/13 08:06:54;;;;;;;40.15;33.42;;;4.70;99.90;;;;;;5017458;28;20045;-71
2022/11/13 08:09:20;;;;;;;36.22;31.63;;;4.70;99.90;;;;;;5018785;28;20046;-71
2022/11/13 08:11:46;;;;;;;42.67;32.97;;;4.90;99.90;;;;;;5017329;28;20046;-70
2022/11/13 08:14:11;;;;;;;40.75;32.95;;;4.80;99.90;;;;;;5017687;28;20056;-71
2022/11/13 08:16:37;;;;;;;36.28;31.50;;;4.80;99.90;;;;;;5016474;28;20525;-71
2022/11/13 08:19:03;;;;;;;35.95;31.38;;;4.80;99.90;;;;;;5015251;28;20454;-71
2022/11/13 08:21:29;;;;;;;36.92;31.90;;;4.90;99.90;;;;;;5007250;28;20055;-71
2022/11/13 08:23:54;;;;;;;39.80;35.25;;;4.90;99.90;;;;;;5019866;28;20461;-71
2022/11/13 08:26:20;;;;;;;38.15;33.95;;;4.90;99.90;;;;;;5037194;28;20103;-71
2022/11/13 08:28:46;;;;;;;40.80;35.10;;;5.00;99.90;;;;;;5029837;28;20108;-71
2022/11/13 08:31:13;;;;;;;39.58;32.70;;;5.00;99.90;;;;;;5016617;28;20359;-72
2022/11/13 08:33:40;;;;;;;43.05;35.13;;;5.10;99.90;;;;;;5017034;28;20533;-70
2022/11/13 08:36:05;;;;;;;42.85;35.63;;;5.10;99.90;;;;;;5024608;28;20112;-69
2022/11/13 08:38:31;;;;;;;38.60;32.55;;;5.20;99.90;;;;;;5023750;28;20113;-69
2022/11/13 08:40:58;;;;;;;38.42;32.13;;;5.20;99.90;;;;;;5016192;28;20145;-71
2022/11/13 08:43:24;;;;;;;37.45;30.90;;;5.30;99.90;;;;;;5016524;28;20042;-73
2022/11/13 08:45:50;;;;;;;36.22;30.55;;;5.30;99.90;;;;;;5016030;28;20124;-69
2022/11/13 08:48:16;;;;;;;37.95;30.75;;;5.40;99.90;;;;;;5014877;28;20434;-72
2022/11/13 08:50:42;;;;;;;45.63;31.85;;;5.40;99.90;;;;;;5030110;28;20049;-70
2022/11/13 08:53:08;;;;;;;38.25;31.05;;;5.40;99.90;;;;;;5016514;28;20129;-70
2022/11/13 08:55:34;;;;;;;38.05;31.13;;;5.50;99.90;;;;;;5024065;28;20048;-69
2022/11/13 08:58:00;;;;;;;36.65;29.88;;;5.60;99.90;;;;;;5019166;28;20441;-70
2022/11/13 09:00:28;;;;;;;37.65;30.48;;;5.60;99.90;;;;;;5016685;28;20046;-69
2022/11/13 09:02:59;;;;;;;35.38;29.60;;;5.70;99.90;;;;;;5016854;28;20327;-69
2022/11/13 09:05:28;;;;;;;36.22;30.50;;;5.70;99.90;;;;;;4999622;28;20046;-69
2022/11/13 09:07:58;;;;;;;37.95;31.92;;;5.80;99.90;;;;;;5017007;28;20037;-70
2022/11/13 09:10:25;;;;;;;42.15;32.47;;;5.80;99.90;;;;;;5016562;28;20046;-71
2022/11/13 09:13:00;;;;;;;38.42;32.20;;;6.00;99.90;;;;;;5030173;28;20050;-71
2022/11/13 09:15:26;;;;;;;41.75;32.67;;;6.00;99.90;;;;;;5013342;28;20050;-70
2022/11/13 09:17:58;;;;;;;37.97;29.67;;;6.10;99.90;;;;;;5014522;28;20153;-72
2022/11/13 09:20:28;;;;;;;45.92;34.55;;;6.20;99.90;;;;;;5015724;28;20468;-72
2022/11/13 09:23:04;;;;;;;40.58;29.25;;;6.30;99.90;;;;;;5003713;28;20045;-72
2022/11/13 09:25:30;;;;;;;36.97;28.35;;;6.70;99.90;;;;;;5019856;28;20037;-71
2022/11/13 09:27:58;;;;;;;36.95;28.33;;;6.40;99.90;;;;;;5015936;28;20433;-71
2022/11/13 09:30:25;;;;;;;33.20;26.92;;;6.50;99.90;;;;;;5029266;28;20037;-71
2022/11/13 09:32:56;;;;;;;31.23;26.05;;;6.60;99.90;;;;;;5015457;28;20048;-70
2022/11/13 09:35:35;;;;;;;32.10;26.60;;;6.70;99.90;;;;;;5014680;28;20152;-72
2022/11/13 09:38:05;;;;;;;30.77;24.00;;;6.70;99.90;;;;;;5014787;28;20050;-71
2022/11/13 09:40:51;;;;;;;28.95;23.65;;;6.80;99.90;;;;;;4998307;28;20050;-71
2022/11/13 09:43:41;;;;;;;31.77;24.45;;;6.90;99.90;;;;;;5015767;28;20056;-71
2022/11/13 09:46:41;;;;;;;27.58;23.55;;;7.00;99.90;;;;;;5015211;28;20042;-71
2022/11/13 09:49:31;;;;;;;29.30;24.05;;;7.10;99.90;;;;;;5023055;28;20041;-71
2022/11/13 09:52:01;;;;;;;28.02;22.73;;;7.10;99.90;;;;;;5035307;28;20043;-72
2022/11/13 09:54:27;;;;;;;29.65;25.10;;;7.10;99.90;;;;;;5021006;28;20046;-71
2022/11/13 09:57:00;;;;;;;25.95;21.75;;;7.20;99.90;;;;;;5013367;28;20048;-72
2022/11/13 09:59:55;;;;;;;31.60;24.45;;;7.60;99.90;;;;;;5015506;28;20113;-73
2022/11/13 10:02:39;;;;;;;28.92;22.75;;;7.30;99.90;;;;;;5015159;28;20060;-71
2022/11/13 10:05:26;;;;;;;28.58;22.85;;;7.40;99.90;;;;;;5015160;28;20042;-71
2022/11/13 10:08:14;;;;;;;29.75;22.95;;;7.40;99.90;;;;;;5029731;28;20089;-72
2022/11/13 10:11:04;;;;;;;26.35;22.38;;;7.40;99.90;;;;;;5021107;28;20061;-71
2022/11/13 10:13:40;;;;;;;29.98;22.77;;;7.50;99.90;;;;;;5004379;28;20060;-70
2022/11/13 10:16:16;;;;;;;30.75;24.85;;;7.60;99.90;;;;;;4997804;28;20454;-70
2022/11/13 10:18:44;;;;;;;29.67;22.63;;;7.60;99.90;;;;;;5015815;28;20033;-70
2022/11/13 10:21:21;;;;;;;28.40;22.15;;;7.60;99.90;;;;;;5015272;28;20037;-70
2022/11/13 10:23:53;;;;;;;26.08;23.08;;;7.70;99.90;;;;;;4966900;28;20038;-71
2022/11/13 10:26:23;;;;;;;26.17;22.52;;;8.00;99.90;;;;;;5015469;28;20139;-71
2022/11/13 10:29:05;;;;;;;26.27;21.67;;;7.80;99.90;;;;;;5014832;28;20462;-71
2022/11/13 10:31:43;;;;;;;29.63;23.48;;;7.80;99.90;;;;;;5015499;28;20073;-70
2022/11/13 10:34:10;;;;;;;25.77;21.90;;;7.90;99.90;;;;;;4995120;28;20046;-71
2022/11/13 10:37:08;;;;;;;27.08;23.40;;;7.90;99.90;;;;;;5009577;28;20066;-71
2022/11/13 10:39:44;;;;;;;23.40;20.77;;;8.00;99.90;;;;;;4972326;28;20112;-72
2022/11/13 10:42:22;;;;;;;23.58;20.10;;;8.10;99.90;;;;;;5012464;28;20048;-71
2022/11/13 10:44:54;;;;;;;22.30;20.00;;;8.20;99.90;;;;;;5014972;28;20466;-71
2022/11/13 10:47:22;;;;;;;21.83;18.02;;;8.20;99.90;;;;;;5015087;28;20058;-71
2022/11/13 10:49:48;;;;;;;21.17;18.88;;;8.30;99.90;;;;;;5015102;28;20084;-70
2022/11/13 10:52:23;;;;;;;20.75;18.58;;;8.40;99.90;;;;;;5015091;28;20527;-71
2022/11/13 10:54:49;;;;;;;24.38;19.67;;;8.50;99.90;;;;;;4995086;28;20044;-71
2022/11/13 10:57:29;;;;;;;20.15;17.98;;;8.60;99.90;;;;;;5034962;28;20045;-71
2022/11/13 10:59:55;;;;;;;20.45;18.00;;;8.70;99.90;;;;;;5018047;28;20081;-71
2022/11/13 11:02:23;;;;;;;19.10;17.17;;;8.80;99.90;;;;;;5007535;28;20080;-71
2022/11/13 11:05:02;;;;;;;19.00;17.10;;;8.90;99.90;;;;;;5034509;28;20457;-71
2022/11/13 11:07:39;;;;;;;16.63;14.93;;;9.10;99.90;;;;;;5017679;28;20037;-71
2022/11/13 11:10:19;;;;;;;16.92;15.20;;;9.20;99.90;;;;;;5034574;28;20066;-72
2022/11/13 11:12:56;;;;;;;17.13;15.30;;;9.30;99.90;;;;;;5018633;28;20064;-72
2022/11/13 11:15:47;;;;;;;17.50;15.75;;;9.40;99.90;;;;;;4996700;28;20056;-72
2022/11/13 11:18:37;;;;;;;16.63;14.98;;;9.50;99.90;;;;;;5012861;28;20049;-72
2022/11/13 11:21:11;;;;;;;15.27;13.63;;;9.60;99.90;;;;;;5034310;28;20412;-72
2022/11/13 11:23:49;;;;;;;16.23;13.40;;;9.70;99.90;;;;;;5038737;28;20045;-71
2022/11/13 11:26:30;;;;;;;16.27;14.68;;;9.70;99.90;;;;;;5038564;28;20049;-72
2022/11/13 11:29:19;;;;;;;16.15;14.45;;;9.80;99.90;;;;;;4992089;28;20116;-71
2022/11/13 11:31:57;;;;;;;16.42;14.82;;;9.90;99.90;;;;;;5018529;28;20053;-71
2022/11/13 11:34:47;;;;;;;19.02;15.40;;;10.10;99.90;;;;;;5018617;28;20046;-72
2022/11/13 11:37:14;;;;;;;17.35;15.38;;;10.10;99.90;;;;;;4985189;28;21285;-71
2022/11/13 11:39:49;;;;;;;19.10;16.08;;;10.30;99.90;;;;;;5001244;28;20128;-70
2022/11/13 11:42:38;;;;;;;17.05;15.25;;;10.30;99.90;;;;;;5019816;28;20037;-71
2022/11/13 11:45:28;;;;;;;14.60;13.10;;;10.30;99.90;;;;;;4987918;28;20053;-68
2022/11/13 11:47:55;;;;;;;16.33;13.82;;;10.40;99.90;;;;;;5008796;28;20125;-70
2022/11/13 11:50:56;;;;;;;15.73;13.40;;;10.50;99.90;;;;;;5017824;28;20041;-69
2022/11/13 11:54:00;;;;;;;15.75;13.90;;;10.60;99.90;;;;;;5004098;28;20121;-71
2022/11/13 11:56:40;;;;;;;14.25;12.73;;;10.60;99.90;;;;;;5012182;28;20042;-72
2022/11/13 11:59:17;;;;;;;14.70;12.63;;;10.70;99.90;;;;;;5018254;28;20050;-72
2022/11/13 12:02:04;;;;;;;19.20;13.73;;;10.80;99.90;;;;;;5018029;28;20077;-72
2022/11/13 12:05:10;;;;;;;14.48;13.13;;;10.80;99.90;;;;;;5017903;28;20041;-71
2022/11/13 12:07:50;;;;;;;17.95;13.27;;;10.90;99.90;;;;;;5010135;28;20358;-72
2022/11/13 12:10:35;;;;;;;13.48;12.18;;;11.00;99.90;;;;;;5017577;28;20065;-72
2022/11/13 12:13:21;;;;;;;13.50;12.13;;;11.00;99.90;;;;;;5017733;28;20056;-72
2022/11/13 12:16:11;;;;;;;15.35;12.57;;;11.10;99.90;;;;;;5017743;28;20085;-72
2022/11/13 12:18:59;;;;;;;13.55;11.98;;;11.10;99.90;;;;;;5017777;28;20056;-72
2022/11/13 12:21:42;;;;;;;14.93;12.55;;;11.10;99.90;;;;;;5017546;28;20045;-72
2022/11/13 12:24:26;;;;;;;;;;;11.20;99.90;;;;;;5000918;28;20056;-72
2022/11/13 12:27:33;;;;;;;13.18;10.95;;;11.20;99.90;;;;;;5017974;28;20281;-72
2022/11/13 12:30:09;;;;;;;13.55;11.38;;;11.20;99.90;;;;;;5017240;28;20034;-72
2022/11/13 12:32:53;;;;;;;13.32;11.95;;;11.30;99.90;;;;;;5016362;28;20045;-72
2022/11/13 12:35:22;;;;;;;12.93;10.57;;;11.30;99.90;;;;;;4999975;28;20045;-72
2022/11/13 12:38:01;;;;;;;12.48;11.13;;;11.30;99.90;;;;;;5017489;28;20129;-73
2022/11/13 12:40:35;;;;;;;12.07;10.88;;;11.30;99.90;;;;;;4983771;28;20045;-73
2022/11/13 12:43:29;;;;;;;12.30;11.00;;;11.30;99.90;;;;;;5016916;28;20044;-73
2022/11/13 12:45:59;;;;;;;12.27;10.98;;;11.40;99.90;;;;;;5017242;28;20485;-72
2022/11/13 12:48:43;;;;;;;12.40;11.10;;;11.40;99.90;;;;;;5017268;28;20042;-72
2022/11/13 12:51:10;;;;;;;;;;;11.40;99.90;;;;;;5017345;28;20034;-72
2022/11/13 12:53:52;;;;;;;12.27;10.65;;;11.50;99.90;;;;;;5016926;28;20242;-72